Potomac, Maryland
Current Conditions -  °F | °C
As of 3:35 PM on Friday 21 Nov 2014 (Local Time) from KGAI Reporting Station
Clear Clear  
Wind Chill: 27°   Ceiling: Unl
Heat Index: 34°   Visibility: 10mi
Dew Point:   Wind: 8mph
Humidity: 32%   Direction: 310°NW
Pressure: 30.49"   Gusts: NA
Location:  39.02°N, 77.21°W
Report Text: KGAI 212035Z 31007KT 10SM CLR 01/M14 A3049 RMK AO1
Loading
Personal Weather Stations






























Interactive Weather Map New forecast layout! Learn more

10-Day Weather Forecast

Advertisements
Track Severe Weather on mobile